sensor_id;sensor_type;location;lat;lon;timestamp;pressure;altitude;pressure_sealevel;temperature;humidity
10978;BME280;5542;48.272;10.794;2023-06-10T00:00:39;95325.22;;;17.33;65.64
10978;BME280;5542;48.272;10.794;2023-06-10T00:03:07;95325.47;;;17.32;65.83
10978;BME280;5542;48.272;10.794;2023-06-10T00:05:34;95322.66;;;17.18;66.50
10978;BME280;5542;48.272;10.794;2023-06-10T00:08:01;95323.19;;;17.20;66.25
10978;BME280;5542;48.272;10.794;2023-06-10T00:10:33;95328.59;;;17.10;66.91
10978;BME280;5542;48.272;10.794;2023-06-10T00:13:01;95332.59;;;17.07;67.12
10978;BME280;5542;48.272;10.794;2023-06-10T00:15:27;95329.47;;;17.00;67.64
10978;BME280;5542;48.272;10.794;2023-06-10T00:17:54;95337.94;;;17.02;67.42
10978;BME280;5542;48.272;10.794;2023-06-10T00:20:21;95334.97;;;17.09;67.21
10978;BME280;5542;48.272;10.794;2023-06-10T00:22:48;95340.56;;;17.07;67.37
10978;BME280;5542;48.272;10.794;2023-06-10T00:25:15;95336.66;;;17.00;67.50
10978;BME280;5542;48.272;10.794;2023-06-10T00:27:43;95336.66;;;16.95;67.71
10978;BME280;5542;48.272;10.794;2023-06-10T00:30:10;95338.88;;;16.87;67.90
10978;BME280;5542;48.272;10.794;2023-06-10T00:32:37;95338.91;;;16.82;68.10
10978;BME280;5542;48.272;10.794;2023-06-10T00:35:05;95334.97;;;16.75;68.30
10978;BME280;5542;48.272;10.794;2023-06-10T00:37:32;95338.97;;;16.72;68.45
10978;BME280;5542;48.272;10.794;2023-06-10T00:40:00;95336.88;;;16.64;68.78
10978;BME280;5542;48.272;10.794;2023-06-10T00:42:26;95332.94;;;16.51;69.15
10978;BME280;5542;48.272;10.794;2023-06-10T00:44:55;95343.88;;;16.45;69.45
10978;BME280;5542;48.272;10.794;2023-06-10T00:47:22;95333.59;;;16.38;69.97
10978;BME280;5542;48.272;10.794;2023-06-10T00:49:49;95330.41;;;16.31;70.23
10978;BME280;5542;48.272;10.794;2023-06-10T00:52:18;95332.81;;;16.27;70.38
10978;BME280;5542;48.272;10.794;2023-06-10T00:54:45;95327.78;;;16.26;71.05
10978;BME280;5542;48.272;10.794;2023-06-10T00:57:12;95334.00;;;16.06;71.64
10978;BME280;5542;48.272;10.794;2023-06-10T00:59:39;95327.72;;;15.81;72.86
10978;BME280;5542;48.272;10.794;2023-06-10T01:02:07;95329.59;;;15.81;72.81
10978;BME280;5542;48.272;10.794;2023-06-10T01:04:34;95322.69;;;15.80;72.99
10978;BME280;5542;48.272;10.794;2023-06-10T01:07:09;95327.44;;;15.83;73.00
10978;BME280;5542;48.272;10.794;2023-06-10T01:09:46;95331.97;;;15.77;73.52
10978;BME280;5542;48.272;10.794;2023-06-10T01:12:19;95334.09;;;15.70;73.68
10978;BME280;5542;48.272;10.794;2023-06-10T01:14:47;95327.50;;;15.62;74.17
10978;BME280;5542;48.272;10.794;2023-06-10T01:17:15;95335.97;;;15.59;74.37
10978;BME280;5542;48.272;10.794;2023-06-10T01:19:43;95335.97;;;15.70;74.16
10978;BME280;5542;48.272;10.794;2023-06-10T01:22:11;95338.88;;;15.73;73.97
10978;BME280;5542;48.272;10.794;2023-06-10T01:24:41;95341.78;;;15.77;74.00
10978;BME280;5542;48.272;10.794;2023-06-10T01:27:12;95346.56;;;15.75;74.26
10978;BME280;5542;48.272;10.794;2023-06-10T01:29:44;95343.41;;;15.62;74.71
10978;BME280;5542;48.272;10.794;2023-06-10T01:32:18;95344.47;;;15.51;75.23
10978;BME280;5542;48.272;10.794;2023-06-10T01:34:48;95345.00;;;15.53;75.20
10978;BME280;5542;48.272;10.794;2023-06-10T01:37:19;95352.16;;;15.58;75.16
10978;BME280;5542;48.272;10.794;2023-06-10T01:39:48;95360.88;;;15.74;74.54
10978;BME280;5542;48.272;10.794;2023-06-10T01:42:15;95349.97;;;15.96;73.50
10978;BME280;5542;48.272;10.794;2023-06-10T01:44:42;95355.47;;;16.04;73.23
10978;BME280;5542;48.272;10.794;2023-06-10T01:47:09;95358.09;;;16.20;72.42
10978;BME280;5542;48.272;10.794;2023-06-10T01:49:35;95363.59;;;16.33;71.91
10978;BME280;5542;48.272;10.794;2023-06-10T01:52:02;95348.41;;;16.44;71.35
10978;BME280;5542;48.272;10.794;2023-06-10T01:54:30;95350.75;;;16.51;70.76
10978;BME280;5542;48.272;10.794;2023-06-10T01:56:59;95357.88;;;16.55;70.45
10978;BME280;5542;48.272;10.794;2023-06-10T01:59:26;95357.38;;;16.53;70.25
10978;BME280;5542;48.272;10.794;2023-06-10T02:01:52;95356.88;;;16.46;69.95
10978;BME280;5542;48.272;10.794;2023-06-10T02:04:19;95359.31;;;16.37;70.42
10978;BME280;5542;48.272;10.794;2023-06-10T02:06:46;95360.13;;;16.38;70.46
10978;BME280;5542;48.272;10.794;2023-06-10T02:09:13;95360.09;;;16.43;70.24
10978;BME280;5542;48.272;10.794;2023-06-10T02:11:41;95351.31;;;16.48;69.96
10978;BME280;5542;48.272;10.794;2023-06-10T02:14:08;95357.38;;;16.53;69.62
10978;BME280;5542;48.272;10.794;2023-06-10T02:16:34;95361.09;;;16.47;69.72
10978;BME280;5542;48.272;10.794;2023-06-10T02:19:01;95360.13;;;16.33;70.60
10978;BME280;5542;48.272;10.794;2023-06-10T02:21:31;95358.09;;;16.20;71.53
10978;BME280;5542;48.272;10.794;2023-06-10T02:23:57;95363.72;;;15.98;73.17
10978;BME280;5542;48.272;10.794;2023-06-10T02:26:24;95361.41;;;15.71;74.98
10978;BME280;5542;48.272;10.794;2023-06-10T02:28:52;95366.72;;;15.71;75.08
10978;BME280;5542;48.272;10.794;2023-06-10T02:31:19;95364.03;;;15.76;75.22
10978;BME280;5542;48.272;10.794;2023-06-10T02:33:45;95364.31;;;15.79;74.93
10978;BME280;5542;48.272;10.794;2023-06-10T02:36:12;95366.47;;;15.72;75.31
10978;BME280;5542;48.272;10.794;2023-06-10T02:38:40;95368.84;;;15.74;75.18
10978;BME280;5542;48.272;10.794;2023-06-10T02:41:07;95361.69;;;15.64;75.83
10978;BME280;5542;48.272;10.794;2023-06-10T02:43:33;95369.91;;;15.57;76.14
10978;BME280;5542;48.272;10.794;2023-06-10T02:46:02;95365.13;;;15.59;76.12
10978;BME280;5542;48.272;10.794;2023-06-10T02:48:28;95367.50;;;15.61;76.34
10978;BME280;5542;48.272;10.794;2023-06-10T02:50:55;95373.09;;;15.65;76.25
10978;BME280;5542;48.272;10.794;2023-06-10T02:53:22;95365.13;;;15.59;76.37
10978;BME280;5542;48.272;10.794;2023-06-10T02:55:48;95367.81;;;15.44;77.65
10978;BME280;5542;48.272;10.794;2023-06-10T02:58:15;95365.16;;;15.39;77.62
10978;BME280;5542;48.272;10.794;2023-06-10T03:00:42;95365.66;;;15.46;77.29
10978;BME280;5542;48.272;10.794;2023-06-10T03:03:10;95359.84;;;15.54;77.02
10978;BME280;5542;48.272;10.794;2023-06-10T03:05:38;95358.78;;;15.66;76.38
10978;BME280;5542;48.272;10.794;2023-06-10T03:08:05;95363.03;;;15.72;75.90
10978;BME280;5542;48.272;10.794;2023-06-10T03:10:32;95360.59;;;15.75;75.87
10978;BME280;5542;48.272;10.794;2023-06-10T03:12:58;95369.38;;;15.66;76.15
10978;BME280;5542;48.272;10.794;2023-06-10T03:15:25;95367.25;;;15.52;76.92
10978;BME280;5542;48.272;10.794;2023-06-10T03:17:54;95368.59;;;15.45;77.39
10978;BME280;5542;48.272;10.794;2023-06-10T03:20:22;95368.06;;;15.48;77.28
10978;BME280;5542;48.272;10.794;2023-06-10T03:22:48;95372.56;;;15.37;78.33
10978;BME280;5542;48.272;10.794;2023-06-10T03:25:15;95371.50;;;15.33;78.66
10978;BME280;5542;48.272;10.794;2023-06-10T03:27:42;95383.97;;;15.32;78.49
10978;BME280;5542;48.272;10.794;2023-06-10T03:30:10;95379.22;;;15.19;78.75
10978;BME280;5542;48.272;10.794;2023-06-10T03:32:37;95387.16;;;15.14;78.59
10978;BME280;5542;48.272;10.794;2023-06-10T03:35:04;95387.94;;;15.09;78.77
10978;BME280;5542;48.272;10.794;2023-06-10T03:37:33;95392.44;;;15.09;79.01
10978;BME280;5542;48.272;10.794;2023-06-10T03:40:00;95397.22;;;14.97;79.30
10978;BME280;5542;48.272;10.794;2023-06-10T03:42:28;95388.19;;;14.88;79.94
10978;BME280;5542;48.272;10.794;2023-06-10T03:44:55;95390.56;;;14.84;79.93
10978;BME280;5542;48.272;10.794;2023-06-10T03:47:22;95389.50;;;14.70;80.73
10978;BME280;5542;48.272;10.794;2023-06-10T03:49:48;95392.66;;;14.67;81.41
10978;BME280;5542;48.272;10.794;2023-06-10T03:52:15;95401.66;;;14.60;81.79
10978;BME280;5542;48.272;10.794;2023-06-10T03:54:43;95397.91;;;14.56;82.21
10978;BME280;5542;48.272;10.794;2023-06-10T03:57:09;95402.41;;;14.51;82.94
10978;BME280;5542;48.272;10.794;2023-06-10T03:59:36;95410.31;;;14.46;83.22
10978;BME280;5542;48.272;10.794;2023-06-10T04:02:03;95409.81;;;14.49;83.32
10978;BME280;5542;48.272;10.794;2023-06-10T04:04:30;95412.22;;;14.55;83.09
10978;BME280;5542;48.272;10.794;2023-06-10T04:06:56;95409.88;;;14.64;82.66
10978;BME280;5542;48.272;10.794;2023-06-10T04:09:23;95418.59;;;14.65;82.91
10978;BME280;5542;48.272;10.794;2023-06-10T04:11:51;95413.88;;;14.72;82.68
10978;BME280;5542;48.272;10.794;2023-06-10T04:14:17;95421.28;;;14.80;82.42
10978;BME280;5542;48.272;10.794;2023-06-10T04:16:44;95412.25;;;14.81;82.12
10978;BME280;5542;48.272;10.794;2023-06-10T04:19:11;95410.44;;;14.87;82.26
10978;BME280;5542;48.272;10.794;2023-06-10T04:21:37;95412.81;;;14.78;82.91
10978;BME280;5542;48.272;10.794;2023-06-10T04:24:04;95410.16;;;14.83;82.69
10978;BME280;5542;48.272;10.794;2023-06-10T04:26:31;95417.31;;;14.88;82.62
10978;BME280;5542;48.272;10.794;2023-06-10T04:28:59;95413.34;;;14.85;82.96
10978;BME280;5542;48.272;10.794;2023-06-10T04:31:25;95416.50;;;14.72;84.25
10978;BME280;5542;48.272;10.794;2023-06-10T04:33:52;95423.13;;;14.84;84.04
10978;BME280;5542;48.272;10.794;2023-06-10T04:36:19;95417.34;;;15.03;83.61
10978;BME280;5542;48.272;10.794;2023-06-10T04:38:46;95426.09;;;15.14;83.53
10978;BME280;5542;48.272;10.794;2023-06-10T04:41:13;95421.34;;;15.21;82.97
10978;BME280;5542;48.272;10.794;2023-06-10T04:43:39;95425.06;;;15.25;82.82
10978;BME280;5542;48.272;10.794;2023-06-10T04:46:07;95417.63;;;15.22;83.34
10978;BME280;5542;48.272;10.794;2023-06-10T04:48:34;95420.53;;;15.25;83.43
10978;BME280;5542;48.272;10.794;2023-06-10T04:51:01;95425.56;;;15.37;82.95
10978;BME280;5542;48.272;10.794;2023-06-10T04:53:27;95431.69;;;15.48;82.78
10978;BME280;5542;48.272;10.794;2023-06-10T04:55:54;95431.13;;;15.71;81.47
10978;BME280;5542;48.272;10.794;2023-06-10T04:58:22;95429.78;;;15.84;80.82
10978;BME280;5542;48.272;10.794;2023-06-10T05:00:49;95436.16;;;15.88;80.94
10978;BME280;5542;48.272;10.794;2023-06-10T05:03:17;95439.09;;;15.86;81.20
10978;BME280;5542;48.272;10.794;2023-06-10T05:05:43;95438.75;;;16.03;80.26
10978;BME280;5542;48.272;10.794;2023-06-10T05:08:10;95435.56;;;16.11;80.25
10978;BME280;5542;48.272;10.794;2023-06-10T05:10:37;95433.94;;;16.26;80.16
10978;BME280;5542;48.272;10.794;2023-06-10T05:13:03;95437.63;;;16.35;79.16
10978;BME280;5542;48.272;10.794;2023-06-10T05:15:30;95434.66;;;16.42;79.25
10978;BME280;5542;48.272;10.794;2023-06-10T05:17:57;95435.94;;;16.54;78.91
10978;BME280;5542;48.272;10.794;2023-06-10T05:20:25;95445.19;;;16.72;77.37
10978;BME280;5542;48.272;10.794;2023-06-10T05:22:53;95438.53;;;16.75;77.00
10978;BME280;5542;48.272;10.794;2023-06-10T05:25:20;95440.66;;;16.68;78.01
10978;BME280;5542;48.272;10.794;2023-06-10T05:27:46;95436.63;;;16.80;78.38
10978;BME280;5542;48.272;10.794;2023-06-10T05:30:13;95443.75;;;16.95;78.03
10978;BME280;5542;48.272;10.794;2023-06-10T05:32:40;95449.56;;;16.97;77.75
10978;BME280;5542;48.272;10.794;2023-06-10T05:35:07;95447.94;;;17.01;77.76
10978;BME280;5542;48.272;10.794;2023-06-10T05:37:35;95451.22;;;16.83;79.28
10978;BME280;5542;48.272;10.794;2023-06-10T05:40:02;95446.56;;;17.09;78.92
10978;BME280;5542;48.272;10.794;2023-06-10T05:42:29;95446.25;;;17.15;78.43
10978;BME280;5542;48.272;10.794;2023-06-10T05:44:56;95452.63;;;17.20;77.98
10978;BME280;5542;48.272;10.794;2023-06-10T05:47:22;95454.66;;;17.28;77.00
10978;BME280;5542;48.272;10.794;2023-06-10T05:49:49;95452.00;;;17.33;76.35
10978;BME280;5542;48.272;10.794;2023-06-10T05:52:17;95450.88;;;17.39;75.76
10978;BME280;5542;48.272;10.794;2023-06-10T05:54:45;95450.25;;;17.52;76.93
10978;BME280;5542;48.272;10.794;2023-06-10T05:57:12;95453.38;;;17.59;76.33
10978;BME280;5542;48.272;10.794;2023-06-10T05:59:38;95450.88;;;17.73;75.24
10978;BME280;5542;48.272;10.794;2023-06-10T06:02:05;95442.13;;;17.67;75.64
10978;BME280;5542;48.272;10.794;2023-06-10T06:04:32;95441.56;;;17.76;74.75
10978;BME280;5542;48.272;10.794;2023-06-10T06:06:58;95450.75;;;17.88;74.87
10978;BME280;5542;48.272;10.794;2023-06-10T06:09:25;95450.97;;;17.92;74.99
10978;BME280;5542;48.272;10.794;2023-06-10T06:11:53;95443.97;;;18.01;73.62
10978;BME280;5542;48.272;10.794;2023-06-10T06:14:20;95445.38;;;18.17;72.08
10978;BME280;5542;48.272;10.794;2023-06-10T06:16:46;95442.22;;;18.15;72.98
10978;BME280;5542;48.272;10.794;2023-06-10T06:19:13;95443.75;;;18.22;74.11
10978;BME280;5542;48.272;10.794;2023-06-10T06:21:39;95440.53;;;18.49;73.45
10978;BME280;5542;48.272;10.794;2023-06-10T06:24:07;95441.88;;;18.89;71.09
10978;BME280;5542;48.272;10.794;2023-06-10T06:26:33;95443.22;;;18.67;71.03
10978;BME280;5542;48.272;10.794;2023-06-10T06:29:01;95449.00;;;18.75;71.68
10978;BME280;5542;48.272;10.794;2023-06-10T06:31:28;95442.56;;;18.81;70.68
10978;BME280;5542;48.272;10.794;2023-06-10T06:33:54;95440.69;;;19.00;71.64
10978;BME280;5542;48.272;10.794;2023-06-10T06:36:21;95443.53;;;19.41;70.58
10978;BME280;5542;48.272;10.794;2023-06-10T06:38:47;95444.81;;;19.44;68.78
10978;BME280;5542;48.272;10.794;2023-06-10T06:41:14;95446.84;;;19.71;66.68
10978;BME280;5542;48.272;10.794;2023-06-10T06:43:40;95446.06;;;19.52;66.42
10978;BME280;5542;48.272;10.794;2023-06-10T06:46:09;95451.25;;;19.62;67.28
10978;BME280;5542;48.272;10.794;2023-06-10T06:48:36;95451.19;;;19.81;67.21
10978;BME280;5542;48.272;10.794;2023-06-10T06:51:02;95451.66;;;20.29;67.79
10978;BME280;5542;48.272;10.794;2023-06-10T06:53:29;95454.25;;;20.62;64.45
10978;BME280;5542;48.272;10.794;2023-06-10T06:55:55;95456.13;;;20.89;64.46
10978;BME280;5542;48.272;10.794;2023-06-10T06:58:22;95450.03;;;21.47;61.14
10978;BME280;5542;48.272;10.794;2023-06-10T07:00:49;95448.56;;;21.63;59.26
10978;BME280;5542;48.272;10.794;2023-06-10T07:03:17;95458.25;;;22.04;61.77
10978;BME280;5542;48.272;10.794;2023-06-10T07:05:43;95454.59;;;22.22;56.55
10978;BME280;5542;48.272;10.794;2023-06-10T07:08:10;95456.63;;;22.26;58.69
10978;BME280;5542;48.272;10.794;2023-06-10T07:10:37;95462.00;;;22.26;56.91
10978;BME280;5542;48.272;10.794;2023-06-10T07:13:04;95453.28;;;22.51;57.59
10978;BME280;5542;48.272;10.794;2023-06-10T07:15:30;95456.72;;;22.43;55.40
10978;BME280;5542;48.272;10.794;2023-06-10T07:17:58;95464.72;;;22.34;56.64
10978;BME280;5542;48.272;10.794;2023-06-10T07:20:25;95461.50;;;22.63;56.05
10978;BME280;5542;48.272;10.794;2023-06-10T07:22:52;95458.50;;;23.22;54.10
10978;BME280;5542;48.272;10.794;2023-06-10T07:25:19;95464.19;;;23.29;53.08
10978;BME280;5542;48.272;10.794;2023-06-10T07:27:45;95471.03;;;22.87;54.88
10978;BME280;5542;48.272;10.794;2023-06-10T07:30:12;95472.34;;;22.89;55.65
10978;BME280;5542;48.272;10.794;2023-06-10T07:32:39;95461.03;;;23.18;52.54
10978;BME280;5542;48.272;10.794;2023-06-10T07:35:08;95462.09;;;23.00;53.25
10978;BME280;5542;48.272;10.794;2023-06-10T07:37:37;95454.41;;;23.50;53.63
10978;BME280;5542;48.272;10.794;2023-06-10T07:40:04;95455.97;;;23.43;51.21
10978;BME280;5542;48.272;10.794;2023-06-10T07:42:31;95455.19;;;23.42;55.44
10978;BME280;5542;48.272;10.794;2023-06-10T07:44:58;95457.84;;;23.86;51.96
10978;BME280;5542;48.272;10.794;2023-06-10T07:47:25;95451.78;;;24.06;49.88
10978;BME280;5542;48.272;10.794;2023-06-10T07:49:51;95451.75;;;24.15;51.62
10978;BME280;5542;48.272;10.794;2023-06-10T07:52:18;95452.69;;;24.36;47.87
10978;BME280;5542;48.272;10.794;2023-06-10T07:54:46;95448.94;;;24.58;48.13
10978;BME280;5542;48.272;10.794;2023-06-10T07:57:12;95449.47;;;24.43;48.35
10978;BME280;5542;48.272;10.794;2023-06-10T07:59:39;95445.47;;;25.17;47.33
10978;BME280;5542;48.272;10.794;2023-06-10T08:02:05;95446.50;;;25.24;46.46
10978;BME280;5542;48.272;10.794;2023-06-10T08:04:32;95446.75;;;25.11;46.90
10978;BME280;5542;48.272;10.794;2023-06-10T08:07:00;95445.75;;;25.15;45.05
10978;BME280;5542;48.272;10.794;2023-06-10T08:09:28;95444.66;;;25.16;46.69
10978;BME280;5542;48.272;10.794;2023-06-10T08:11:56;95438.94;;;25.39;45.16
10978;BME280;5542;48.272;10.794;2023-06-10T08:14:23;95451.22;;;25.27;46.01
10978;BME280;5542;48.272;10.794;2023-06-10T08:16:49;95436.66;;;25.28;44.39
10978;BME280;5542;48.272;10.794;2023-06-10T08:19:16;95445.00;;;25.36;45.89
10978;BME280;5542;48.272;10.794;2023-06-10T08:21:43;95446.81;;;25.44;44.34
10978;BME280;5542;48.272;10.794;2023-06-10T08:24:09;95445.53;;;25.62;45.36
10978;BME280;5542;48.272;10.794;2023-06-10T08:26:36;95438.03;;;25.89;44.53
10978;BME280;5542;48.272;10.794;2023-06-10T08:29:04;95434.84;;;26.20;43.87
10978;BME280;5542;48.272;10.794;2023-06-10T08:31:30;95437.13;;;26.67;43.86
10978;BME280;5542;48.272;10.794;2023-06-10T08:33:57;95423.44;;;26.60;40.81
10978;BME280;5542;48.272;10.794;2023-06-10T08:36:23;95434.22;;;25.90;43.07
10978;BME280;5542;48.272;10.794;2023-06-10T08:38:50;95444.66;;;25.16;44.31
10978;BME280;5542;48.272;10.794;2023-06-10T08:41:17;95444.63;;;24.66;44.88
10978;BME280;5542;48.272;10.794;2023-06-10T08:43:51;95433.25;;;24.90;44.47
10978;BME280;5542;48.272;10.794;2023-06-10T08:46:20;95442.00;;;24.78;45.49
10978;BME280;5542;48.272;10.794;2023-06-10T08:48:48;95440.84;;;24.20;47.29
10978;BME280;5542;48.272;10.794;2023-06-10T08:51:19;95445.31;;;24.54;46.33
10978;BME280;5542;48.272;10.794;2023-06-10T08:53:50;95437.50;;;24.70;45.95
10978;BME280;5542;48.272;10.794;2023-06-10T08:56:19;95437.38;;;25.17;46.56
10978;BME280;5542;48.272;10.794;2023-06-10T08:58:48;95436.66;;;25.28;44.26
10978;BME280;5542;48.272;10.794;2023-06-10T09:01:14;95440.25;;;24.82;44.49
10978;BME280;5542;48.272;10.794;2023-06-10T09:03:43;95443.06;;;25.15;46.90
10978;BME280;5542;48.272;10.794;2023-06-10T09:06:10;95439.91;;;25.55;46.73
10978;BME280;5542;48.272;10.794;2023-06-10T09:08:37;95424.00;;;25.95;43.15
10978;BME280;5542;48.272;10.794;2023-06-10T09:11:04;95430.41;;;25.91;41.87
10978;BME280;5542;48.272;10.794;2023-06-10T09:13:30;95429.41;;;25.95;41.75
10978;BME280;5542;48.272;10.794;2023-06-10T09:15:57;95431.56;;;26.02;39.65
10978;BME280;5542;48.272;10.794;2023-06-10T09:18:26;95430.22;;;26.08;40.85
10978;BME280;5542;48.272;10.794;2023-06-10T09:20:55;95424.78;;;25.84;41.03
10978;BME280;5542;48.272;10.794;2023-06-10T09:23:21;95419.97;;;26.01;40.63
10978;BME280;5542;48.272;10.794;2023-06-10T09:25:56;95420.81;;;26.26;39.95
10978;BME280;5542;48.272;10.794;2023-06-10T09:28:24;95423.38;;;26.23;39.88
10978;BME280;5542;48.272;10.794;2023-06-10T09:31:02;95427.56;;;25.87;40.29
10978;BME280;5542;48.272;10.794;2023-06-10T09:33:29;95436.81;;;25.44;41.58
10978;BME280;5542;48.272;10.794;2023-06-10T09:35:57;95437.91;;;25.01;43.46
10978;BME280;5542;48.272;10.794;2023-06-10T09:38:29;95437.16;;;25.43;41.17
10978;BME280;5542;48.272;10.794;2023-06-10T09:40:56;95429.28;;;25.38;39.29
10978;BME280;5542;48.272;10.794;2023-06-10T09:43:23;95432.63;;;25.35;42.05
10978;BME280;5542;48.272;10.794;2023-06-10T09:45:50;95440.59;;;25.31;41.11
10978;BME280;5542;48.272;10.794;2023-06-10T09:48:18;95443.66;;;25.42;43.15
10978;BME280;5542;48.272;10.794;2023-06-10T09:50:45;95438.50;;;25.37;41.14
10978;BME280;5542;48.272;10.794;2023-06-10T09:53:13;95437.94;;;25.64;42.61
10978;BME280;5542;48.272;10.794;2023-06-10T09:55:41;95427.97;;;26.10;38.94
10978;BME280;5542;48.272;10.794;2023-06-10T09:58:07;95433.44;;;26.01;40.05
10978;BME280;5542;48.272;10.794;2023-06-10T10:00:34;95441.06;;;25.66;40.51
10978;BME280;5542;48.272;10.794;2023-06-10T10:03:01;95432.16;;;25.53;41.86
10978;BME280;5542;48.272;10.794;2023-06-10T10:05:28;95425.56;;;25.84;42.32
10978;BME280;5542;48.272;10.794;2023-06-10T10:07:55;95429.91;;;26.22;39.36
10978;BME280;5542;48.272;10.794;2023-06-10T10:10:24;95432.97;;;25.87;41.39
10978;BME280;5542;48.272;10.794;2023-06-10T10:12:53;95423.00;;;26.00;40.36
10978;BME280;5542;48.272;10.794;2023-06-10T10:15:21;95429.97;;;25.68;39.23
10978;BME280;5542;48.272;10.794;2023-06-10T10:17:52;95424.78;;;25.09;41.31
10978;BME280;5542;48.272;10.794;2023-06-10T10:20:25;95439.81;;;25.31;42.15
10978;BME280;5542;48.272;10.794;2023-06-10T10:22:56;95430.28;;;25.33;41.49
10978;BME280;5542;48.272;10.794;2023-06-10T10:25:28;95435.31;;;24.93;41.81
10978;BME280;5542;48.272;10.794;2023-06-10T10:27:57;95432.31;;;25.15;41.17
10978;BME280;5542;48.272;10.794;2023-06-10T10:30:25;95428.69;;;25.53;41.20
10978;BME280;5542;48.272;10.794;2023-06-10T10:32:57;95432.66;;;25.68;42.58
10978;BME280;5542;48.272;10.794;2023-06-10T10:35:26;95429.97;;;26.01;41.83
10978;BME280;5542;48.272;10.794;2023-06-10T10:37:54;95418.63;;;25.95;40.37
10978;BME280;5542;48.272;10.794;2023-06-10T10:40:22;95420.44;;;26.16;41.81
10978;BME280;5542;48.272;10.794;2023-06-10T10:42:51;95428.63;;;25.95;41.51
10978;BME280;5542;48.272;10.794;2023-06-10T10:45:18;95430.31;;;25.99;42.47
10978;BME280;5542;48.272;10.794;2023-06-10T10:47:46;95429.53;;;25.66;41.74
10978;BME280;5542;48.272;10.794;2023-06-10T10:50:17;95433.19;;;25.61;41.63
10978;BME280;5542;48.272;10.794;2023-06-10T10:52:52;95430.44;;;25.49;42.18
10978;BME280;5542;48.272;10.794;2023-06-10T10:55:20;95418.41;;;26.00;43.09
10978;BME280;5542;48.272;10.794;2023-06-10T10:57:55;95417.56;;;26.33;40.36
10978;BME280;5542;48.272;10.794;2023-06-10T11:00:28;95418.59;;;26.53;39.76
10978;BME280;5542;48.272;10.794;2023-06-10T11:02:58;95412.97;;;26.58;39.12
10978;BME280;5542;48.272;10.794;2023-06-10T11:05:41;95420.91;;;26.30;39.44
10978;BME280;5542;48.272;10.794;2023-06-10T11:08:10;95432.03;;;26.16;41.28
10978;BME280;5542;48.272;10.794;2023-06-10T11:10:37;95421.31;;;25.95;40.79
10978;BME280;5542;48.272;10.794;2023-06-10T11:13:09;95414.81;;;25.96;40.25
10978;BME280;5542;48.272;10.794;2023-06-10T11:15:42;95419.09;;;26.10;41.72
10978;BME280;5542;48.272;10.794;2023-06-10T11:18:11;95414.88;;;26.21;41.46
10978;BME280;5542;48.272;10.794;2023-06-10T11:20:45;95418.91;;;26.39;41.33
10978;BME280;5542;48.272;10.794;2023-06-10T11:23:39;95413.78;;;26.46;39.98
10978;BME280;5542;48.272;10.794;2023-06-10T11:29:17;95419.19;;;26.01;40.65
10978;BME280;5542;48.272;10.794;2023-06-10T11:31:49;95436.00;;;25.32;42.31
10978;BME280;5542;48.272;10.794;2023-06-10T11:34:21;95431.38;;;25.11;43.34
10978;BME280;5542;48.272;10.794;2023-06-10T11:36:49;95433.84;;;24.74;43.54
10978;BME280;5542;48.272;10.794;2023-06-10T11:39:17;95427.41;;;24.58;44.52
10978;BME280;5542;48.272;10.794;2023-06-10T11:41:45;95425.81;;;24.36;44.10
10978;BME280;5542;48.272;10.794;2023-06-10T11:44:12;95433.94;;;24.01;46.54
10978;BME280;5542;48.272;10.794;2023-06-10T11:46:41;95432.53;;;23.95;46.22
10978;BME280;5542;48.272;10.794;2023-06-10T11:49:08;95430.84;;;24.38;43.65
10978;BME280;5542;48.272;10.794;2023-06-10T11:51:36;95421.47;;;24.73;44.01
10978;BME280;5542;48.272;10.794;2023-06-10T11:54:04;95424.81;;;25.21;41.71
10978;BME280;5542;48.272;10.794;2023-06-10T11:56:32;95409.19;;;25.35;41.06
10978;BME280;5542;48.272;10.794;2023-06-10T11:59:00;95403.94;;;25.93;40.91
10978;BME280;5542;48.272;10.794;2023-06-10T12:01:30;95406.09;;;26.12;39.89
10978;BME280;5542;48.272;10.794;2023-06-10T12:04:02;95409.81;;;25.74;40.60
10978;BME280;5542;48.272;10.794;2023-06-10T12:06:38;95415.78;;;25.59;41.31
10978;BME280;5542;48.272;10.794;2023-06-10T12:09:05;95423.47;;;25.69;42.13
10978;BME280;5542;48.272;10.794;2023-06-10T12:11:31;95412.91;;;25.64;41.02
10978;BME280;5542;48.272;10.794;2023-06-10T12:13:58;95424.41;;;25.52;43.55
10978;BME280;5542;48.272;10.794;2023-06-10T12:16:25;95425.47;;;25.60;42.64
10978;BME280;5542;48.272;10.794;2023-06-10T12:19:02;95426.25;;;25.60;43.98
10978;BME280;5542;48.272;10.794;2023-06-10T12:21:29;95426.66;;;25.50;41.70
10978;BME280;5542;48.272;10.794;2023-06-10T12:24:03;95417.56;;;25.21;43.27
10978;BME280;5542;48.272;10.794;2023-06-10T12:26:38;95421.91;;;25.05;43.68
10978;BME280;5542;48.272;10.794;2023-06-10T12:29:21;95417.47;;;25.09;42.94
10978;BME280;5542;48.272;10.794;2023-06-10T12:31:59;95410.22;;;25.01;44.41
10978;BME280;5542;48.272;10.794;2023-06-10T12:34:33;95419.56;;;25.24;44.43
10978;BME280;5542;48.272;10.794;2023-06-10T12:37:01;95412.00;;;24.97;44.77
10978;BME280;5542;48.272;10.794;2023-06-10T12:39:29;95412.28;;;25.04;44.66
10978;BME280;5542;48.272;10.794;2023-06-10T12:41:57;95413.75;;;25.22;44.50
10978;BME280;5542;48.272;10.794;2023-06-10T12:44:31;95411.81;;;25.02;45.11
10978;BME280;5542;48.272;10.794;2023-06-10T12:46:58;95416.00;;;24.91;44.52
10978;BME280;5542;48.272;10.794;2023-06-10T12:49:24;95409.28;;;24.76;45.51
10978;BME280;5542;48.272;10.794;2023-06-10T12:51:53;95413.97;;;24.58;45.66
10978;BME280;5542;48.272;10.794;2023-06-10T12:54:19;95408.53;;;24.46;46.90
10978;BME280;5542;48.272;10.794;2023-06-10T12:56:46;95414.75;;;24.20;47.43
10978;BME280;5542;48.272;10.794;2023-06-10T12:59:12;95408.94;;;24.18;48.16
10978;BME280;5542;48.272;10.794;2023-06-10T13:01:39;95410.84;;;24.18;47.73
10978;BME280;5542;48.272;10.794;2023-06-10T13:04:06;95405.75;;;24.16;47.94
10978;BME280;5542;48.272;10.794;2023-06-10T13:06:33;95399.22;;;23.88;46.98